createdAt,value
2018-09-17T00:01:55.785Z,22.50
2018-09-17T00:04:24.633Z,22.50
2018-09-17T00:06:53.626Z,22.50
2018-09-17T00:09:22.449Z,22.50
2018-09-17T00:11:51.532Z,22.50
2018-09-17T00:14:20.417Z,22.50
2018-09-17T00:16:50.296Z,22.50
2018-09-17T00:19:19.142Z,22.50
2018-09-17T00:21:47.966Z,22.50
2018-09-17T00:24:16.821Z,22.50
2018-09-17T00:26:45.935Z,22.50
2018-09-17T00:29:15.091Z,22.50
2018-09-17T00:31:43.882Z,22.50
2018-09-17T00:34:12.994Z,22.50
2018-09-17T00:36:41.815Z,22.50
2018-09-17T00:39:13.087Z,22.50
2018-09-17T00:41:42.648Z,22.50
2018-09-17T00:44:11.477Z,22.40
2018-09-17T00:46:40.812Z,22.50
2018-09-17T00:49:09.887Z,22.50
2018-09-17T00:51:38.911Z,22.40
2018-09-17T00:54:09.046Z,22.40
2018-09-17T00:56:37.906Z,22.50
2018-09-17T00:59:06.887Z,22.40
2018-09-17T01:01:35.727Z,22.40
2018-09-17T01:04:04.688Z,22.40
2018-09-17T01:06:33.555Z,22.40
2018-09-17T01:09:02.738Z,22.40
2018-09-17T01:11:31.574Z,22.40
2018-09-17T01:14:00.691Z,22.40
2018-09-17T01:16:30.870Z,22.40
2018-09-17T01:19:00.074Z,22.30
2018-09-17T01:21:28.871Z,22.30
2018-09-17T01:23:57.702Z,22.40
2018-09-17T01:26:26.551Z,22.30
2018-09-17T01:28:56.342Z,22.40
2018-09-17T01:31:25.167Z,22.30
2018-09-17T01:33:53.991Z,22.40
2018-09-17T01:36:22.803Z,22.30
2018-09-17T01:38:51.615Z,22.30
2018-09-17T01:41:20.683Z,22.30
2018-09-17T01:43:49.959Z,22.30
2018-09-17T01:46:18.833Z,22.30
2018-09-17T01:48:47.649Z,22.30
2018-09-17T01:51:17.054Z,22.30
2018-09-17T01:53:47.574Z,22.30
2018-09-17T01:56:16.987Z,22.30
2018-09-17T01:58:45.811Z,22.30
2018-09-17T02:01:15.002Z,22.30
2018-09-17T02:03:44.275Z,22.30
2018-09-17T02:06:13.135Z,22.30
2018-09-17T02:08:41.963Z,22.30
2018-09-17T02:11:11.135Z,22.30
2018-09-17T02:13:39.933Z,22.30
2018-09-17T02:16:10.495Z,22.30
2018-09-17T02:18:39.311Z,22.20
2018-09-17T02:21:08.530Z,22.30
2018-09-17T02:23:37.354Z,22.20
2018-09-17T02:26:06.179Z,22.20
2018-09-17T02:28:35.335Z,22.20
2018-09-17T02:31:04.177Z,22.20
2018-09-17T02:33:32.992Z,22.20
2018-09-17T02:36:01.819Z,22.20
2018-09-17T02:38:31.011Z,22.20
2018-09-17T02:41:00.404Z,22.20
2018-09-17T02:43:29.570Z,22.20
2018-09-17T02:45:58.423Z,22.20
2018-09-17T02:48:27.654Z,22.20
2018-09-17T02:50:56.475Z,22.20
2018-09-17T02:53:26.848Z,22.20
2018-09-17T02:55:56.066Z,22.20
2018-09-17T02:58:24.888Z,22.20
2018-09-17T03:00:53.723Z,22.20
2018-09-17T03:03:24.425Z,22.20
2018-09-17T03:05:54.227Z,22.20
2018-09-17T03:08:23.342Z,22.20
2018-09-17T03:12:22.267Z,22.10
2018-09-17T03:14:52.356Z,22.10
2018-09-17T03:17:21.183Z,22.10
2018-09-17T03:19:49.998Z,22.00
2018-09-17T03:22:18.838Z,22.00
2018-09-17T03:24:47.682Z,22.10
2018-09-17T03:27:16.675Z,22.00
2018-09-17T03:29:46.188Z,22.10
2018-09-17T03:32:14.999Z,22.00
2018-09-17T03:34:44.202Z,22.10
2018-09-17T03:37:13.397Z,22.00
2018-09-17T03:39:42.778Z,22.10
2018-09-17T03:42:11.618Z,22.10
2018-09-17T03:44:40.439Z,22.00
2018-09-17T03:47:09.264Z,22.00
2018-09-17T03:49:38.123Z,22.00
2018-09-17T03:52:08.254Z,22.00
2018-09-17T03:54:37.677Z,22.10
2018-09-17T03:57:06.963Z,22.00
2018-09-17T03:59:35.779Z,22.00
2018-09-17T04:02:04.658Z,22.00
2018-09-17T04:04:33.481Z,22.00
2018-09-17T04:07:02.791Z,22.10
2018-09-17T04:09:31.655Z,22.00
2018-09-17T04:12:00.754Z,22.00
2018-09-17T04:14:31.051Z,22.00
2018-09-17T04:16:59.871Z,22.10
2018-09-17T04:19:28.851Z,22.00
2018-09-17T04:21:57.737Z,22.00
2018-09-17T04:24:26.559Z,22.00
2018-09-17T04:26:55.430Z,22.00
2018-09-17T04:29:24.256Z,22.00
2018-09-17T04:31:53.101Z,22.00
2018-09-17T04:34:22.274Z,22.00
2018-09-17T04:36:51.134Z,22.00
2018-09-17T04:39:22.327Z,22.00
2018-09-17T04:41:51.155Z,22.00
2018-09-17T04:44:21.423Z,21.90
2018-09-17T04:46:50.705Z,21.90
2018-09-17T04:49:19.535Z,21.90
2018-09-17T04:51:48.393Z,22.00
2018-09-17T04:54:17.924Z,21.90
2018-09-17T04:56:47.219Z,21.90
2018-09-17T04:59:16.018Z,21.90
2018-09-17T05:01:44.883Z,21.90
2018-09-17T05:04:13.694Z,21.90
2018-09-17T05:06:42.572Z,21.90
2018-09-17T05:09:11.416Z,21.90
2018-09-17T05:11:40.256Z,21.90
2018-09-17T05:14:10.367Z,21.90
2018-09-17T05:16:39.205Z,21.90
2018-09-17T05:19:08.034Z,21.90
2018-09-17T05:21:37.148Z,21.90
2018-09-17T05:24:06.061Z,21.90
2018-09-17T05:26:35.336Z,21.90
2018-09-17T05:29:04.130Z,21.90
2018-09-17T05:31:34.243Z,21.90
2018-09-17T05:34:03.051Z,21.90
2018-09-17T05:36:31.868Z,21.90
2018-09-17T05:39:00.703Z,21.90
2018-09-17T05:41:29.514Z,21.90
2018-09-17T05:43:59.148Z,21.90
2018-09-17T05:46:27.969Z,21.90
2018-09-17T05:48:56.802Z,21.90
2018-09-17T05:51:25.792Z,21.90
2018-09-17T05:53:56.278Z,21.90
2018-09-17T05:56:25.311Z,21.90
2018-09-17T05:58:54.303Z,21.90
2018-09-17T06:01:23.926Z,21.90
2018-09-17T06:03:53.947Z,21.90
2018-09-17T06:06:22.792Z,21.90
2018-09-17T06:08:51.875Z,22.00
2018-09-17T06:11:20.707Z,22.10
2018-09-17T06:13:50.454Z,21.90
2018-09-17T06:16:19.282Z,21.60
2018-09-17T06:18:48.124Z,21.40
2018-09-17T06:21:16.942Z,21.00
2018-09-17T06:23:46.672Z,20.70
2018-09-17T06:26:15.491Z,20.80
2018-09-17T06:28:44.332Z,20.90
2018-09-17T06:31:13.830Z,21.00
2018-09-17T06:33:42.916Z,21.10
2018-09-17T06:36:13.696Z,21.30
2018-09-17T06:38:42.537Z,21.40
2018-09-17T06:41:11.365Z,21.40
2018-09-17T06:43:40.183Z,21.50
2018-09-17T06:46:09.555Z,21.50
2018-09-17T06:48:39.638Z,21.60
2018-09-17T06:51:08.490Z,21.60
2018-09-17T06:53:39.344Z,21.60
2018-09-17T06:56:08.133Z,21.70
2018-09-17T06:58:36.947Z,21.70
2018-09-17T07:01:06.059Z,21.70
2018-09-17T07:03:34.949Z,21.80
2018-09-17T07:06:04.049Z,21.80
2018-09-17T07:08:33.530Z,21.90
2018-09-17T07:11:03.086Z,21.90
2018-09-17T07:13:33.237Z,22.00
2018-09-17T07:16:02.056Z,22.00
2018-09-17T07:18:30.895Z,22.00
2018-09-17T07:20:59.720Z,22.10
2018-09-17T07:23:29.595Z,22.10
2018-09-17T07:25:58.431Z,22.10
2018-09-17T07:28:27.263Z,22.20
2018-09-17T07:30:56.137Z,22.20
2018-09-17T07:33:25.360Z,22.20
2018-09-17T07:35:54.243Z,22.30
2018-09-17T07:38:23.075Z,22.30
2018-09-17T07:40:52.504Z,22.30
2018-09-17T07:43:21.307Z,22.30
2018-09-17T07:45:50.180Z,22.30
2018-09-17T07:48:19.474Z,22.30
2018-09-17T07:50:48.314Z,22.30
2018-09-17T07:53:18.658Z,22.40
2018-09-17T07:55:47.736Z,22.30
2018-09-17T07:58:16.572Z,22.40
2018-09-17T08:00:45.490Z,22.30
2018-09-17T08:03:14.311Z,22.30
2018-09-17T08:05:43.278Z,22.30
2018-09-17T08:08:12.084Z,22.40
2018-09-17T08:10:41.318Z,22.40
2018-09-17T08:13:11.239Z,22.40
2018-09-17T08:15:40.070Z,22.40
2018-09-17T08:18:08.953Z,22.40
2018-09-17T08:20:38.153Z,22.40
2018-09-17T08:23:06.973Z,22.40
2018-09-17T08:25:36.204Z,22.40
2018-09-17T08:28:05.335Z,22.50
2018-09-17T08:30:34.203Z,22.50
2018-09-17T08:33:03.016Z,22.40
2018-09-17T08:35:31.936Z,22.40
2018-09-17T08:38:00.847Z,22.40
2018-09-17T08:40:29.661Z,22.50
2018-09-17T08:42:58.916Z,22.50
2018-09-17T08:45:27.743Z,22.50
2018-09-17T08:47:57.017Z,22.50
2018-09-17T08:50:26.324Z,22.60
2018-09-17T08:52:56.818Z,22.60
2018-09-17T08:55:31.070Z,22.70
2018-09-17T08:58:07.115Z,22.70
2018-09-17T09:00:41.303Z,22.70
2018-09-17T09:03:11.230Z,22.70
2018-09-17T09:05:40.505Z,22.70
2018-09-17T09:08:09.383Z,22.70
2018-09-17T09:10:43.639Z,22.70
2018-09-17T09:13:20.583Z,22.70
2018-09-17T09:15:49.415Z,22.70
2018-09-17T09:18:18.259Z,22.70
2018-09-17T09:20:47.162Z,22.80
2018-09-17T09:23:16.016Z,22.80
2018-09-17T09:25:44.834Z,22.80
2018-09-17T09:28:13.832Z,22.80
2018-09-17T09:30:42.665Z,22.80
2018-09-17T09:33:11.840Z,22.90
2018-09-17T09:35:41.102Z,22.80
2018-09-17T09:38:10.008Z,22.90
2018-09-17T09:40:38.799Z,22.90
2018-09-17T09:43:07.701Z,22.90
2018-09-17T09:45:37.687Z,22.90
2018-09-17T09:48:07.917Z,22.90
2018-09-17T09:50:36.761Z,22.90
2018-09-17T09:53:06.729Z,22.80
2018-09-17T09:55:35.540Z,22.80
2018-09-17T09:58:05.936Z,22.80
2018-09-17T10:00:40.046Z,22.80
2018-09-17T10:03:14.379Z,22.80
2018-09-17T10:05:43.296Z,22.90
2018-09-17T10:08:12.210Z,22.90
2018-09-17T10:12:48.467Z,23.00
2018-09-17T10:15:23.756Z,22.90
2018-09-17T10:17:58.088Z,22.90
2018-09-17T10:20:26.919Z,22.90
2018-09-17T10:22:55.774Z,22.90
2018-09-17T10:25:24.676Z,23.00
2018-09-17T10:27:53.523Z,23.00
2018-09-17T10:30:22.384Z,23.00
2018-09-17T10:32:51.930Z,23.10
2018-09-17T10:35:20.788Z,23.10
2018-09-17T10:37:49.683Z,23.20
2018-09-17T10:40:18.743Z,23.20
2018-09-17T10:42:47.561Z,23.20
2018-09-17T10:45:16.516Z,23.20
2018-09-17T10:47:46.598Z,23.30
2018-09-17T10:50:16.128Z,23.30
2018-09-17T10:52:46.246Z,23.30
2018-09-17T10:55:15.268Z,23.40
2018-09-17T10:57:44.120Z,23.40
2018-09-17T11:00:12.975Z,23.40
2018-09-17T11:02:42.151Z,23.50
2018-09-17T11:05:11.050Z,23.50
2018-09-17T11:07:39.886Z,23.50
2018-09-17T11:10:08.755Z,23.60
2018-09-17T11:12:39.561Z,23.70
2018-09-17T11:15:08.400Z,23.70
2018-09-17T11:17:37.239Z,23.70
2018-09-17T11:20:06.101Z,23.70
2018-09-17T11:22:34.930Z,23.70
2018-09-17T11:25:04.526Z,23.80
2018-09-17T11:27:33.381Z,23.80
2018-09-17T11:30:02.215Z,23.80
2018-09-17T11:32:31.051Z,23.90
2018-09-17T11:35:00.248Z,23.90
2018-09-17T11:37:32.143Z,23.90
2018-09-17T11:40:00.960Z,23.80
2018-09-17T11:42:30.103Z,23.90
2018-09-17T11:44:59.272Z,23.90
2018-09-17T11:47:29.728Z,23.90
2018-09-17T11:49:58.510Z,24.00
2018-09-17T11:52:27.735Z,23.90
2018-09-17T11:54:57.828Z,24.00
2018-09-17T11:57:26.762Z,24.10
2018-09-17T11:59:55.869Z,24.10
2018-09-17T12:02:30.414Z,24.10
2018-09-17T12:05:09.504Z,24.10
2018-09-17T12:07:41.411Z,24.10
2018-09-17T12:10:12.580Z,24.20
2018-09-17T12:12:41.386Z,24.30
2018-09-17T12:15:10.211Z,24.30
2018-09-17T12:17:39.082Z,24.40
2018-09-17T12:20:08.187Z,24.50
2018-09-17T12:22:37.425Z,24.50
2018-09-17T12:25:06.385Z,24.60
2018-09-17T12:27:35.608Z,24.60
2018-09-17T12:30:04.526Z,24.60
2018-09-17T12:32:33.570Z,24.70
2018-09-17T12:35:04.243Z,24.80
2018-09-17T12:37:33.537Z,24.80
2018-09-17T12:40:02.690Z,24.80
2018-09-17T12:42:31.490Z,24.90
2018-09-17T12:45:00.332Z,24.90
2018-09-17T12:47:30.651Z,25.00
2018-09-17T12:49:59.905Z,25.00
2018-09-17T12:52:28.787Z,25.00
2018-09-17T12:54:59.239Z,25.00
2018-09-17T12:57:28.412Z,24.90
2018-09-17T12:59:57.268Z,24.90
2018-09-17T13:02:26.110Z,24.80
2018-09-17T13:04:54.948Z,24.80
2018-09-17T13:07:24.104Z,24.90
2018-09-17T13:09:54.794Z,24.90
2018-09-17T13:12:24.783Z,24.90
2018-09-17T13:14:53.864Z,25.00
2018-09-17T13:17:22.891Z,25.10
2018-09-17T13:19:51.740Z,25.10
2018-09-17T13:22:21.263Z,25.10
2018-09-17T13:24:50.130Z,25.20
2018-09-17T13:27:19.457Z,25.20
2018-09-17T13:29:48.355Z,25.30
2018-09-17T13:32:18.655Z,25.20
2018-09-17T13:34:47.479Z,25.20
2018-09-17T13:37:16.679Z,25.30
2018-09-17T13:39:45.523Z,25.30
2018-09-17T13:42:14.804Z,25.30
2018-09-17T13:44:43.785Z,25.30
2018-09-17T13:47:12.491Z,25.30
2018-09-17T13:49:41.332Z,25.30
2018-09-17T13:52:11.161Z,25.30
2018-09-17T13:54:41.779Z,25.30
2018-09-17T13:57:10.852Z,25.40
2018-09-17T13:59:39.724Z,25.40
2018-09-17T14:02:09.156Z,25.50
2018-09-17T14:04:37.960Z,25.50
2018-09-17T14:07:07.369Z,25.50
2018-09-17T14:09:37.365Z,25.50
2018-09-17T14:12:06.768Z,25.50
2018-09-17T14:14:35.849Z,25.50
2018-09-17T14:17:04.978Z,25.60
2018-09-17T14:19:33.791Z,25.60
2018-09-17T14:22:03.119Z,25.60
2018-09-17T14:24:32.619Z,25.60
2018-09-17T14:27:02.450Z,25.60
2018-09-17T14:29:31.576Z,25.50
2018-09-17T14:32:05.845Z,25.50
2018-09-17T14:34:34.662Z,25.60
2018-09-17T14:37:03.999Z,25.60
2018-09-17T14:39:33.107Z,25.70
2018-09-17T14:42:01.912Z,25.70
2018-09-17T14:44:30.758Z,25.60
2018-09-17T14:46:59.924Z,25.70
2018-09-17T14:49:30.040Z,25.70
2018-09-17T14:51:58.908Z,25.70
2018-09-17T14:54:28.853Z,25.60
2018-09-17T14:56:58.715Z,25.70
2018-09-17T14:59:27.548Z,25.70
2018-09-17T15:01:56.431Z,25.70
2018-09-17T15:04:26.280Z,25.70
2018-09-17T15:06:55.220Z,25.70
2018-09-17T15:09:26.891Z,25.80
2018-09-17T15:11:55.709Z,25.70
2018-09-17T15:14:24.658Z,25.80
2018-09-17T15:16:53.665Z,25.70
2018-09-17T15:19:23.086Z,25.60
2018-09-17T15:21:51.911Z,25.60
2018-09-17T15:24:20.748Z,25.60
2018-09-17T15:26:49.746Z,25.70
2018-09-17T15:29:18.520Z,25.70
2018-09-17T15:31:47.891Z,25.70
2018-09-17T15:34:16.843Z,25.70
2018-09-17T15:36:45.855Z,25.70
2018-09-17T15:39:14.786Z,25.70
2018-09-17T15:41:43.882Z,25.70
2018-09-17T15:44:13.124Z,25.70
2018-09-17T15:46:41.944Z,25.70
2018-09-17T15:49:11.201Z,25.70
2018-09-17T15:51:40.405Z,25.70
2018-09-17T15:54:10.527Z,25.60
2018-09-17T15:56:39.374Z,25.60
2018-09-17T15:59:08.226Z,25.60
2018-09-17T16:01:37.061Z,25.60
2018-09-17T16:04:05.922Z,25.50
2018-09-17T16:06:35.227Z,25.50
2018-09-17T16:09:07.444Z,25.50
2018-09-17T16:11:37.570Z,25.50
2018-09-17T16:14:06.758Z,25.50
2018-09-17T16:16:35.565Z,25.50
2018-09-17T16:19:04.420Z,25.50
2018-09-17T16:21:33.244Z,25.40
2018-09-17T16:24:02.100Z,25.40
2018-09-17T16:26:30.930Z,25.40
2018-09-17T16:28:59.752Z,25.40
2018-09-17T16:31:28.938Z,25.40
2018-09-17T16:33:57.786Z,25.40
2018-09-17T16:36:27.309Z,25.40
2018-09-17T16:38:56.131Z,25.40
2018-09-17T16:41:24.974Z,25.30
2018-09-17T16:43:53.786Z,25.30
2018-09-17T16:46:22.652Z,25.30
2018-09-17T16:48:51.552Z,25.30
2018-09-17T16:51:20.374Z,25.30
2018-09-17T16:53:53.500Z,25.30
2018-09-17T16:56:22.319Z,25.30
2018-09-17T16:58:51.409Z,25.20
2018-09-17T17:01:21.727Z,25.20
2018-09-17T17:03:50.632Z,25.20
2018-09-17T17:06:19.883Z,25.20
2018-09-17T17:08:49.817Z,25.20
2018-09-17T17:11:18.705Z,25.20
2018-09-17T17:13:47.627Z,25.20
2018-09-17T17:16:16.546Z,25.20
2018-09-17T17:18:45.373Z,25.20
2018-09-17T17:21:14.388Z,25.20
2018-09-17T17:23:43.253Z,25.10
2018-09-17T17:26:12.068Z,25.10
2018-09-17T17:28:41.388Z,25.10
2018-09-17T17:31:10.671Z,25.10
2018-09-17T17:33:39.854Z,25.00
2018-09-17T17:36:08.680Z,25.00
2018-09-17T17:38:37.511Z,25.00
2018-09-17T17:41:07.009Z,25.00
2018-09-17T17:43:35.837Z,25.00
2018-09-17T17:46:04.773Z,25.00
2018-09-17T17:48:33.819Z,25.00
2018-09-17T17:51:02.916Z,25.00
2018-09-17T17:53:32.526Z,25.00
2018-09-17T17:56:01.352Z,25.00
2018-09-17T17:58:30.209Z,24.90
2018-09-17T18:00:59.093Z,24.90
2018-09-17T18:03:28.163Z,24.90
2018-09-17T18:05:57.056Z,24.90
2018-09-17T18:08:27.505Z,24.90
2018-09-17T18:10:56.322Z,24.90
2018-09-17T18:13:25.152Z,24.90
2018-09-17T18:15:54.613Z,24.90
2018-09-17T18:18:23.449Z,24.80
2018-09-17T18:20:52.365Z,24.80
2018-09-17T18:23:21.144Z,24.80
2018-09-17T18:25:49.963Z,24.80
2018-09-17T18:28:18.811Z,24.80
2018-09-17T18:30:48.127Z,24.80
2018-09-17T18:33:17.130Z,24.80
2018-09-17T18:35:45.850Z,24.80
2018-09-17T18:38:14.682Z,24.80
2018-09-17T18:40:43.992Z,24.80
2018-09-17T18:43:12.811Z,24.80
2018-09-17T18:45:41.695Z,24.80
2018-09-17T18:48:11.911Z,24.80
2018-09-17T18:50:40.642Z,24.70
2018-09-17T18:53:12.238Z,24.70
2018-09-17T18:55:41.566Z,24.70
2018-09-17T18:58:10.617Z,24.70
2018-09-17T19:00:39.448Z,24.70
2018-09-17T19:03:08.317Z,24.70
2018-09-17T19:05:37.143Z,24.70
2018-09-17T19:08:07.228Z,24.60
2018-09-17T19:10:36.696Z,24.60
2018-09-17T19:13:05.527Z,24.70
2018-09-17T19:15:40.069Z,24.60
2018-09-17T19:18:14.516Z,24.50
2018-09-17T19:20:43.702Z,24.50
2018-09-17T19:23:17.826Z,24.50
2018-09-17T19:25:47.102Z,24.50
2018-09-17T19:28:21.491Z,24.50
2018-09-17T19:30:50.316Z,24.40
2018-09-17T19:33:20.000Z,24.40
2018-09-17T19:35:49.266Z,24.40
2018-09-17T19:38:23.520Z,24.40
2018-09-17T19:40:53.119Z,24.40
2018-09-17T19:43:23.858Z,24.40
2018-09-17T19:45:58.110Z,24.40
2018-09-17T19:48:26.904Z,24.40
2018-09-17T19:51:01.473Z,24.40
2018-09-17T19:53:31.496Z,24.40
2018-09-17T19:56:00.328Z,24.30
2018-09-17T19:58:34.603Z,24.40
2018-09-17T20:01:03.423Z,24.30
2018-09-17T20:03:32.472Z,24.30
2018-09-17T20:06:09.264Z,24.30
2018-09-17T20:08:38.083Z,24.30
2018-09-17T20:11:06.900Z,24.30
2018-09-17T20:13:35.726Z,24.30
2018-09-17T20:16:04.587Z,24.30
2018-09-17T20:18:33.414Z,24.20
2018-09-17T20:21:02.248Z,24.30
2018-09-17T20:23:31.079Z,24.20
2018-09-17T20:26:00.267Z,24.20
2018-09-17T20:28:29.471Z,24.20
2018-09-17T20:30:58.909Z,24.20
2018-09-17T20:33:30.076Z,24.20
2018-09-17T20:36:00.355Z,24.20
2018-09-17T20:38:30.038Z,24.20
2018-09-17T20:40:58.818Z,24.20
2018-09-17T20:44:30.309Z,24.10
2018-09-17T20:46:59.571Z,24.20
2018-09-17T20:49:28.491Z,24.10
2018-09-17T20:51:57.495Z,24.10
2018-09-17T20:54:29.251Z,24.10
2018-09-17T20:56:58.170Z,24.10
2018-09-17T20:59:26.995Z,24.10
2018-09-17T21:01:55.832Z,24.00
2018-09-17T21:04:24.664Z,24.00
2018-09-17T21:06:54.367Z,24.00
2018-09-17T21:09:23.195Z,23.90
2018-09-17T21:11:51.959Z,23.90
2018-09-17T21:14:20.794Z,24.00
2018-09-17T21:16:50.251Z,23.90
2018-09-17T21:19:19.586Z,23.90
2018-09-17T21:21:48.304Z,23.90
2018-09-17T21:24:17.094Z,23.90
2018-09-17T21:26:45.931Z,23.90
2018-09-17T21:29:15.146Z,23.90
2018-09-17T21:31:44.333Z,23.90
2018-09-17T21:34:13.171Z,23.90
2018-09-17T21:36:43.689Z,23.80
2018-09-17T21:39:14.094Z,23.80
2018-09-17T21:41:42.997Z,23.80
2018-09-17T21:44:11.863Z,23.80
2018-09-17T21:46:40.698Z,23.80
2018-09-17T21:49:09.583Z,23.80
2018-09-17T21:51:38.419Z,23.80
2018-09-17T21:54:07.948Z,23.80
2018-09-17T21:56:36.756Z,23.80
2018-09-17T21:59:05.578Z,23.80
2018-09-17T22:01:34.400Z,23.70
2018-09-17T22:04:03.268Z,23.70
2018-09-17T22:06:33.426Z,23.70
2018-09-17T22:09:02.240Z,23.70
2018-09-17T22:11:31.055Z,23.70
2018-09-17T22:13:59.904Z,23.70
2018-09-17T22:16:28.734Z,23.70
2018-09-17T22:18:57.853Z,23.70
2018-09-17T22:21:26.671Z,23.60
2018-09-17T22:23:55.716Z,23.60
2018-09-17T22:26:24.524Z,23.60
2018-09-17T22:28:54.865Z,23.60
2018-09-17T22:31:23.743Z,23.50
2018-09-17T22:33:52.558Z,23.60
2018-09-17T22:36:22.097Z,23.60
2018-09-17T22:38:51.066Z,23.60
2018-09-17T22:41:20.202Z,23.50
2018-09-17T22:43:49.054Z,23.50
2018-09-17T22:46:17.899Z,23.50
2018-09-17T22:48:47.414Z,23.50
2018-09-17T22:51:16.242Z,23.50
2018-09-17T22:53:46.503Z,23.50
2018-09-17T22:56:15.355Z,23.40
2018-09-17T22:58:44.199Z,23.40
2018-09-17T23:01:13.378Z,23.40
2018-09-17T23:03:42.204Z,23.30
2018-09-17T23:06:12.526Z,23.30
2018-09-17T23:08:41.340Z,23.40
2018-09-17T23:11:10.439Z,23.30
2018-09-17T23:13:39.270Z,23.30
2018-09-17T23:16:08.076Z,23.30
2018-09-17T23:18:36.974Z,23.30
2018-09-17T23:21:06.088Z,23.30
2018-09-17T23:23:34.922Z,23.30
2018-09-17T23:26:03.943Z,23.20
2018-09-17T23:28:34.531Z,23.30
2018-09-17T23:31:04.365Z,23.20
2018-09-17T23:33:33.163Z,23.20
2018-09-17T23:36:02.032Z,23.20
2018-09-17T23:38:30.834Z,23.20
2018-09-17T23:40:59.700Z,23.20
2018-09-17T23:43:28.535Z,23.20
2018-09-17T23:45:57.645Z,23.10
2018-09-17T23:48:26.536Z,23.10
2018-09-17T23:50:56.252Z,23.20
2018-09-17T23:53:28.213Z,23.10
2018-09-17T23:55:57.022Z,23.10
2018-09-17T23:58:26.098Z,23.10
